Gage Information Page
Francis E. Walter Reservoir, PA

Provisional Data Subject to Revision
Francis E. Walter Reservoir, PA
Amber Threshold Elevation:1392 feet
Red Threshold Elevation:1441 feet
Date (ET) Elevation (ft) Storage (ac-ft) Inflow (cfs) Outflow (cfs)
Nov 23, 2014   6:15 am 1301.56 2153 153 118
Nov 23, 2014   5:15 am 1301.53 2150 153 118
Nov 23, 2014   4:15 am 1301.51 2148 156 118
Nov 23, 2014   3:15 am 1301.48 2145 159 118
Nov 23, 2014   2:15 am 1301.45 2142 166 118
Nov 23, 2014   1:15 am 1301.43 2140 175 118
Nov 23, 2014 12:15 am 1301.40 2136 180 118
Nov 22, 2014 11:15 pm 1301.37 2133 186 118
Nov 22, 2014 10:15 pm 1301.34 2130 189 118
Nov 22, 2014   9:15 pm 1301.31 2127 187 118
Nov 22, 2014   8:15 pm 1301.27 2123 182 118
Nov 22, 2014   7:15 pm 1301.22 2118 174 118
Nov 22, 2014   6:15 pm 1301.15 2110 162 118
Nov 22, 2014   5:15 pm 1301.07 2102 144 118
Nov 22, 2014   4:15 pm 1301.01 2096 129 118
Nov 22, 2014   3:15 pm 1300.94 2088 112 118
Nov 22, 2014   2:15 pm 1300.89 2083 98 118
Nov 22, 2014   1:15 pm 1300.87 2081 91 118
Nov 22, 2014 12:15 pm 1300.86 2080 85 118
Nov 22, 2014 11:15 am 1300.86 2080 80 118
Nov 22, 2014 10:15 am 1300.87 2081 79 118
Nov 22, 2014   9:15 am 1300.90 2084 81 118
Nov 22, 2014   8:15 am 1300.94 2088 83 118
Nov 22, 2014   7:15 am 1300.98 2092 87 121
Report Generated Nov 23, 2014 07:31 AM

NWS Web Info
USGS Web Info